sensor_id;sensor_type;location;lat;lon;timestamp;temperature;humidity
42489;DHT22;28118;52.388;9.452;2022-07-22T00:01:37;18.20;99.90
42489;DHT22;28118;52.388;9.452;2022-07-22T00:04:04;18.30;99.90
42489;DHT22;28118;52.388;9.452;2022-07-22T00:06:31;18.30;99.90
42489;DHT22;28118;52.388;9.452;2022-07-22T00:08:58;18.30;99.90
42489;DHT22;28118;52.388;9.452;2022-07-22T00:11:25;18.40;99.90
42489;DHT22;28118;52.388;9.452;2022-07-22T00:13:52;18.40;99.90
42489;DHT22;28118;52.388;9.452;2022-07-22T00:16:18;18.40;99.90
42489;DHT22;28118;52.388;9.452;2022-07-22T00:18:46;18.40;99.90
42489;DHT22;28118;52.388;9.452;2022-07-22T00:21:13;18.50;99.90
42489;DHT22;28118;52.388;9.452;2022-07-22T00:23:40;18.50;99.90
42489;DHT22;28118;52.388;9.452;2022-07-22T00:26:06;18.60;99.90
42489;DHT22;28118;52.388;9.452;2022-07-22T00:28:33;18.60;99.90
42489;DHT22;28118;52.388;9.452;2022-07-22T00:31:00;18.60;99.90
42489;DHT22;28118;52.388;9.452;2022-07-22T00:33:26;18.60;99.90
42489;DHT22;28118;52.388;9.452;2022-07-22T00:35:53;18.60;99.90
42489;DHT22;28118;52.388;9.452;2022-07-22T00:38:20;18.60;99.90
42489;DHT22;28118;52.388;9.452;2022-07-22T00:40:47;18.70;99.90
42489;DHT22;28118;52.388;9.452;2022-07-22T00:43:13;18.70;99.90
42489;DHT22;28118;52.388;9.452;2022-07-22T00:45:40;18.80;99.90
42489;DHT22;28118;52.388;9.452;2022-07-22T00:48:07;18.70;99.90
42489;DHT22;28118;52.388;9.452;2022-07-22T00:50:34;18.70;99.90
42489;DHT22;28118;52.388;9.452;2022-07-22T00:53:01;18.70;99.90
42489;DHT22;28118;52.388;9.452;2022-07-22T00:55:28;18.60;99.90
42489;DHT22;28118;52.388;9.452;2022-07-22T00:57:55;18.50;99.90
42489;DHT22;28118;52.388;9.452;2022-07-22T01:00:22;18.50;99.90
42489;DHT22;28118;52.388;9.452;2022-07-22T01:02:49;18.50;99.90
42489;DHT22;28118;52.388;9.452;2022-07-22T01:05:16;18.40;99.90
42489;DHT22;28118;52.388;9.452;2022-07-22T01:07:44;18.30;99.90
42489;DHT22;28118;52.388;9.452;2022-07-22T01:10:11;18.30;99.90
42489;DHT22;28118;52.388;9.452;2022-07-22T01:12:37;18.30;99.90
42489;DHT22;28118;52.388;9.452;2022-07-22T01:15:05;18.30;99.90
42489;DHT22;28118;52.388;9.452;2022-07-22T01:17:32;18.20;99.90
42489;DHT22;28118;52.388;9.452;2022-07-22T01:20:02;18.20;99.90
42489;DHT22;28118;52.388;9.452;2022-07-22T01:22:30;18.20;99.90
42489;DHT22;28118;52.388;9.452;2022-07-22T01:24:59;18.20;99.90
42489;DHT22;28118;52.388;9.452;2022-07-22T01:27:26;18.20;99.90
42489;DHT22;28118;52.388;9.452;2022-07-22T01:29:52;18.10;99.90
42489;DHT22;28118;52.388;9.452;2022-07-22T01:32:20;18.20;99.90
42489;DHT22;28118;52.388;9.452;2022-07-22T01:34:47;18.20;99.90
42489;DHT22;28118;52.388;9.452;2022-07-22T01:37:13;18.00;99.90
42489;DHT22;28118;52.388;9.452;2022-07-22T01:39:40;17.90;99.90
42489;DHT22;28118;52.388;9.452;2022-07-22T01:42:07;17.80;99.90
42489;DHT22;28118;52.388;9.452;2022-07-22T01:44:34;17.70;99.90
42489;DHT22;28118;52.388;9.452;2022-07-22T01:47:00;17.70;99.90
42489;DHT22;28118;52.388;9.452;2022-07-22T01:49:27;17.70;99.90
42489;DHT22;28118;52.388;9.452;2022-07-22T01:51:54;17.70;99.90
42489;DHT22;28118;52.388;9.452;2022-07-22T01:54:20;17.60;99.90
42489;DHT22;28118;52.388;9.452;2022-07-22T01:56:50;17.60;99.90
42489;DHT22;28118;52.388;9.452;2022-07-22T01:59:16;17.60;99.90
42489;DHT22;28118;52.388;9.452;2022-07-22T02:01:43;17.50;99.90
42489;DHT22;28118;52.388;9.452;2022-07-22T02:04:10;17.40;99.90
42489;DHT22;28118;52.388;9.452;2022-07-22T02:06:37;17.30;99.90
42489;DHT22;28118;52.388;9.452;2022-07-22T02:09:04;17.30;99.90
42489;DHT22;28118;52.388;9.452;2022-07-22T02:11:31;17.30;99.90
42489;DHT22;28118;52.388;9.452;2022-07-22T02:13:58;17.30;99.90
42489;DHT22;28118;52.388;9.452;2022-07-22T02:16:25;17.30;99.90
42489;DHT22;28118;52.388;9.452;2022-07-22T02:18:52;17.10;99.90
42489;DHT22;28118;52.388;9.452;2022-07-22T02:21:19;17.10;99.90
42489;DHT22;28118;52.388;9.452;2022-07-22T02:23:46;17.10;99.90
42489;DHT22;28118;52.388;9.452;2022-07-22T02:26:13;17.10;99.90
42489;DHT22;28118;52.388;9.452;2022-07-22T02:28:40;17.20;99.90
42489;DHT22;28118;52.388;9.452;2022-07-22T02:31:06;17.10;99.90
42489;DHT22;28118;52.388;9.452;2022-07-22T02:33:33;17.10;99.90
42489;DHT22;28118;52.388;9.452;2022-07-22T02:36:02;17.10;99.90
42489;DHT22;28118;52.388;9.452;2022-07-22T02:38:30;17.10;99.90
42489;DHT22;28118;52.388;9.452;2022-07-22T02:40:56;17.20;99.90
42489;DHT22;28118;52.388;9.452;2022-07-22T02:43:23;17.20;99.90
42489;DHT22;28118;52.388;9.452;2022-07-22T02:45:50;17.10;99.90
42489;DHT22;28118;52.388;9.452;2022-07-22T02:48:17;17.10;99.90
42489;DHT22;28118;52.388;9.452;2022-07-22T02:50:47;17.00;99.90
42489;DHT22;28118;52.388;9.452;2022-07-22T02:53:14;17.00;99.90
42489;DHT22;28118;52.388;9.452;2022-07-22T02:55:41;16.90;99.90
42489;DHT22;28118;52.388;9.452;2022-07-22T02:58:08;16.90;99.90
42489;DHT22;28118;52.388;9.452;2022-07-22T03:00:36;16.80;99.90
42489;DHT22;28118;52.388;9.452;2022-07-22T03:03:04;16.80;99.90
42489;DHT22;28118;52.388;9.452;2022-07-22T03:05:31;16.80;99.90
42489;DHT22;28118;52.388;9.452;2022-07-22T03:07:58;16.70;99.90
42489;DHT22;28118;52.388;9.452;2022-07-22T03:10:25;16.80;99.90
42489;DHT22;28118;52.388;9.452;2022-07-22T03:12:52;16.70;99.90
42489;DHT22;28118;52.388;9.452;2022-07-22T03:15:19;16.70;99.90
42489;DHT22;28118;52.388;9.452;2022-07-22T03:17:46;16.70;99.90
42489;DHT22;28118;52.388;9.452;2022-07-22T03:20:13;16.70;99.90
42489;DHT22;28118;52.388;9.452;2022-07-22T03:22:39;16.70;99.90
42489;DHT22;28118;52.388;9.452;2022-07-22T03:25:07;16.70;99.90
42489;DHT22;28118;52.388;9.452;2022-07-22T03:27:33;16.70;99.90
42489;DHT22;28118;52.388;9.452;2022-07-22T03:30:00;16.70;99.90
42489;DHT22;28118;52.388;9.452;2022-07-22T03:32:27;16.70;99.90
42489;DHT22;28118;52.388;9.452;2022-07-22T03:34:53;16.70;99.90
42489;DHT22;28118;52.388;9.452;2022-07-22T03:37:29;16.70;99.90
42489;DHT22;28118;52.388;9.452;2022-07-22T03:39:56;16.70;99.90
42489;DHT22;28118;52.388;9.452;2022-07-22T03:42:22;16.70;99.90
42489;DHT22;28118;52.388;9.452;2022-07-22T03:44:49;16.70;99.90
42489;DHT22;28118;52.388;9.452;2022-07-22T03:47:20;16.70;99.90
42489;DHT22;28118;52.388;9.452;2022-07-22T03:49:47;16.70;99.90
42489;DHT22;28118;52.388;9.452;2022-07-22T03:52:14;16.70;99.90
42489;DHT22;28118;52.388;9.452;2022-07-22T03:54:41;16.60;99.90
42489;DHT22;28118;52.388;9.452;2022-07-22T03:57:08;16.60;99.90
42489;DHT22;28118;52.388;9.452;2022-07-22T03:59:35;16.60;99.90
42489;DHT22;28118;52.388;9.452;2022-07-22T04:02:03;16.60;99.90
42489;DHT22;28118;52.388;9.452;2022-07-22T04:04:30;16.60;99.90
42489;DHT22;28118;52.388;9.452;2022-07-22T04:06:56;16.60;99.90
42489;DHT22;28118;52.388;9.452;2022-07-22T04:09:23;16.60;99.90
42489;DHT22;28118;52.388;9.452;2022-07-22T04:11:50;16.60;99.90
42489;DHT22;28118;52.388;9.452;2022-07-22T04:14:18;16.60;99.90
42489;DHT22;28118;52.388;9.452;2022-07-22T04:16:45;16.50;99.90
42489;DHT22;28118;52.388;9.452;2022-07-22T04:19:12;16.60;99.90
42489;DHT22;28118;52.388;9.452;2022-07-22T04:21:39;16.60;99.90
42489;DHT22;28118;52.388;9.452;2022-07-22T04:24:06;16.60;99.90
42489;DHT22;28118;52.388;9.452;2022-07-22T04:26:33;16.60;99.90
42489;DHT22;28118;52.388;9.452;2022-07-22T04:29:00;16.60;99.90
42489;DHT22;28118;52.388;9.452;2022-07-22T04:31:27;16.60;99.90
42489;DHT22;28118;52.388;9.452;2022-07-22T04:33:54;16.60;99.90
42489;DHT22;28118;52.388;9.452;2022-07-22T04:36:21;16.60;99.90
42489;DHT22;28118;52.388;9.452;2022-07-22T04:38:47;16.50;99.90
42489;DHT22;28118;52.388;9.452;2022-07-22T04:41:14;16.60;99.90
42489;DHT22;28118;52.388;9.452;2022-07-22T04:43:46;16.60;99.90
42489;DHT22;28118;52.388;9.452;2022-07-22T04:46:12;16.60;99.90
42489;DHT22;28118;52.388;9.452;2022-07-22T04:48:39;16.60;99.90
42489;DHT22;28118;52.388;9.452;2022-07-22T04:51:06;16.70;99.90
42489;DHT22;28118;52.388;9.452;2022-07-22T04:53:32;16.70;99.90
42489;DHT22;28118;52.388;9.452;2022-07-22T04:56:13;16.60;99.90
42489;DHT22;28118;52.388;9.452;2022-07-22T04:58:40;16.60;99.90
42489;DHT22;28118;52.388;9.452;2022-07-22T05:01:07;16.60;99.90
42489;DHT22;28118;52.388;9.452;2022-07-22T05:03:34;16.60;99.90
42489;DHT22;28118;52.388;9.452;2022-07-22T05:06:01;16.70;99.90
42489;DHT22;28118;52.388;9.452;2022-07-22T05:08:28;16.70;99.90
42489;DHT22;28118;52.388;9.452;2022-07-22T05:10:54;16.60;99.90
42489;DHT22;28118;52.388;9.452;2022-07-22T05:13:21;16.60;99.90
42489;DHT22;28118;52.388;9.452;2022-07-22T05:15:47;16.70;99.90
42489;DHT22;28118;52.388;9.452;2022-07-22T05:18:14;16.60;99.90
42489;DHT22;28118;52.388;9.452;2022-07-22T05:20:42;16.50;99.90
42489;DHT22;28118;52.388;9.452;2022-07-22T05:23:08;16.60;99.90
42489;DHT22;28118;52.388;9.452;2022-07-22T05:25:35;16.60;99.90
42489;DHT22;28118;52.388;9.452;2022-07-22T05:28:02;16.60;99.90
42489;DHT22;28118;52.388;9.452;2022-07-22T05:30:29;16.70;99.90
42489;DHT22;28118;52.388;9.452;2022-07-22T05:32:55;16.60;99.90
42489;DHT22;28118;52.388;9.452;2022-07-22T05:35:22;16.70;99.90
42489;DHT22;28118;52.388;9.452;2022-07-22T05:37:49;16.70;99.90
42489;DHT22;28118;52.388;9.452;2022-07-22T05:40:16;16.60;99.90
42489;DHT22;28118;52.388;9.452;2022-07-22T05:42:42;16.70;99.90
42489;DHT22;28118;52.388;9.452;2022-07-22T05:45:09;16.70;99.90
42489;DHT22;28118;52.388;9.452;2022-07-22T05:47:36;16.70;99.90
42489;DHT22;28118;52.388;9.452;2022-07-22T05:50:03;16.70;99.90
42489;DHT22;28118;52.388;9.452;2022-07-22T05:52:30;16.70;99.90
42489;DHT22;28118;52.388;9.452;2022-07-22T05:54:59;16.80;99.90
42489;DHT22;28118;52.388;9.452;2022-07-22T05:57:26;16.80;99.90
42489;DHT22;28118;52.388;9.452;2022-07-22T05:59:53;16.90;99.90
42489;DHT22;28118;52.388;9.452;2022-07-22T06:02:20;16.90;99.90
42489;DHT22;28118;52.388;9.452;2022-07-22T06:04:47;16.90;99.90
42489;DHT22;28118;52.388;9.452;2022-07-22T06:07:14;17.00;99.90
42489;DHT22;28118;52.388;9.452;2022-07-22T06:09:41;17.10;99.90
42489;DHT22;28118;52.388;9.452;2022-07-22T06:12:08;17.20;99.90
42489;DHT22;28118;52.388;9.452;2022-07-22T06:14:35;17.20;99.90
42489;DHT22;28118;52.388;9.452;2022-07-22T06:17:03;17.20;99.90
42489;DHT22;28118;52.388;9.452;2022-07-22T06:19:30;17.10;99.90
42489;DHT22;28118;52.388;9.452;2022-07-22T06:21:56;17.10;99.90
42489;DHT22;28118;52.388;9.452;2022-07-22T06:24:23;17.10;99.90
42489;DHT22;28118;52.388;9.452;2022-07-22T06:26:51;17.10;99.90
42489;DHT22;28118;52.388;9.452;2022-07-22T06:29:18;17.10;99.90
42489;DHT22;28118;52.388;9.452;2022-07-22T06:31:45;17.10;99.90
42489;DHT22;28118;52.388;9.452;2022-07-22T06:34:12;17.20;99.90
42489;DHT22;28118;52.388;9.452;2022-07-22T06:36:38;17.20;99.90
42489;DHT22;28118;52.388;9.452;2022-07-22T06:39:05;17.10;99.90
42489;DHT22;28118;52.388;9.452;2022-07-22T06:41:32;17.10;99.90
42489;DHT22;28118;52.388;9.452;2022-07-22T06:43:59;17.00;99.90
42489;DHT22;28118;52.388;9.452;2022-07-22T06:46:26;17.00;99.90
42489;DHT22;28118;52.388;9.452;2022-07-22T06:48:53;17.00;99.90
42489;DHT22;28118;52.388;9.452;2022-07-22T06:51:20;17.00;99.90
42489;DHT22;28118;52.388;9.452;2022-07-22T06:53:52;17.00;99.90
42489;DHT22;28118;52.388;9.452;2022-07-22T06:56:19;17.20;99.90
42489;DHT22;28118;52.388;9.452;2022-07-22T06:58:45;17.40;99.90
42489;DHT22;28118;52.388;9.452;2022-07-22T07:01:12;17.40;99.90
42489;DHT22;28118;52.388;9.452;2022-07-22T07:03:39;17.50;99.90
42489;DHT22;28118;52.388;9.452;2022-07-22T07:06:11;17.60;99.90
42489;DHT22;28118;52.388;9.452;2022-07-22T07:08:39;17.80;99.90
42489;DHT22;28118;52.388;9.452;2022-07-22T07:11:06;17.80;99.90
42489;DHT22;28118;52.388;9.452;2022-07-22T07:13:33;17.80;99.90
42489;DHT22;28118;52.388;9.452;2022-07-22T07:16:00;17.90;99.90
42489;DHT22;28118;52.388;9.452;2022-07-22T07:18:27;17.70;99.90
42489;DHT22;28118;52.388;9.452;2022-07-22T07:20:53;17.70;99.90
42489;DHT22;28118;52.388;9.452;2022-07-22T07:23:21;17.90;99.90
42489;DHT22;28118;52.388;9.452;2022-07-22T07:25:48;17.90;99.90
42489;DHT22;28118;52.388;9.452;2022-07-22T07:28:14;17.70;99.90
42489;DHT22;28118;52.388;9.452;2022-07-22T07:30:41;17.70;99.90
42489;DHT22;28118;52.388;9.452;2022-07-22T07:33:08;17.90;99.90
42489;DHT22;28118;52.388;9.452;2022-07-22T07:35:35;18.00;99.90
42489;DHT22;28118;52.388;9.452;2022-07-22T07:38:02;18.20;99.90
42489;DHT22;28118;52.388;9.452;2022-07-22T07:40:29;18.20;99.90
42489;DHT22;28118;52.388;9.452;2022-07-22T07:42:56;18.00;99.90
42489;DHT22;28118;52.388;9.452;2022-07-22T07:45:29;18.00;99.90
42489;DHT22;28118;52.388;9.452;2022-07-22T07:47:56;18.00;99.90
42489;DHT22;28118;52.388;9.452;2022-07-22T07:50:22;18.10;99.90
42489;DHT22;28118;52.388;9.452;2022-07-22T07:52:49;18.10;99.90
42489;DHT22;28118;52.388;9.452;2022-07-22T07:55:19;18.10;99.90
42489;DHT22;28118;52.388;9.452;2022-07-22T07:57:47;18.30;99.90
42489;DHT22;28118;52.388;9.452;2022-07-22T08:00:19;18.40;99.90
42489;DHT22;28118;52.388;9.452;2022-07-22T08:02:47;18.00;99.90
42489;DHT22;28118;52.388;9.452;2022-07-22T08:05:14;18.10;99.90
42489;DHT22;28118;52.388;9.452;2022-07-22T08:07:41;18.30;99.90
42489;DHT22;28118;52.388;9.452;2022-07-22T08:10:08;18.40;99.90
42489;DHT22;28118;52.388;9.452;2022-07-22T08:12:56;18.60;99.90
42489;DHT22;28118;52.388;9.452;2022-07-22T08:15:26;18.90;99.90
42489;DHT22;28118;52.388;9.452;2022-07-22T08:17:54;18.90;99.90
42489;DHT22;28118;52.388;9.452;2022-07-22T08:20:23;18.70;99.90
42489;DHT22;28118;52.388;9.452;2022-07-22T08:22:53;18.70;99.90
42489;DHT22;28118;52.388;9.452;2022-07-22T08:25:20;18.70;99.90
42489;DHT22;28118;52.388;9.452;2022-07-22T08:27:47;18.70;99.90
42489;DHT22;28118;52.388;9.452;2022-07-22T08:30:15;18.70;99.90
42489;DHT22;28118;52.388;9.452;2022-07-22T08:32:42;18.40;99.90
42489;DHT22;28118;52.388;9.452;2022-07-22T08:35:09;18.40;99.90
42489;DHT22;28118;52.388;9.452;2022-07-22T08:37:36;18.40;99.90
42489;DHT22;28118;52.388;9.452;2022-07-22T08:40:04;18.40;99.90
42489;DHT22;28118;52.388;9.452;2022-07-22T08:42:31;18.60;99.90
42489;DHT22;28118;52.388;9.452;2022-07-22T08:44:59;18.70;99.90
42489;DHT22;28118;52.388;9.452;2022-07-22T08:47:31;18.60;99.90
42489;DHT22;28118;52.388;9.452;2022-07-22T08:50:10;18.60;99.90
42489;DHT22;28118;52.388;9.452;2022-07-22T08:52:36;18.70;99.90
42489;DHT22;28118;52.388;9.452;2022-07-22T08:55:07;18.60;99.90
42489;DHT22;28118;52.388;9.452;2022-07-22T08:57:35;18.40;99.90
42489;DHT22;28118;52.388;9.452;2022-07-22T09:00:13;18.50;99.90
42489;DHT22;28118;52.388;9.452;2022-07-22T09:02:42;18.40;99.90
42489;DHT22;28118;52.388;9.452;2022-07-22T09:05:11;18.50;99.90
42489;DHT22;28118;52.388;9.452;2022-07-22T09:08:00;18.50;99.90
42489;DHT22;28118;52.388;9.452;2022-07-22T09:10:32;18.40;99.90
42489;DHT22;28118;52.388;9.452;2022-07-22T09:13:03;18.30;99.90
42489;DHT22;28118;52.388;9.452;2022-07-22T09:15:33;18.00;99.90
42489;DHT22;28118;52.388;9.452;2022-07-22T09:18:03;17.90;99.90
42489;DHT22;28118;52.388;9.452;2022-07-22T09:20:33;17.80;99.90
42489;DHT22;28118;52.388;9.452;2022-07-22T09:23:01;17.90;99.90
42489;DHT22;28118;52.388;9.452;2022-07-22T09:28:16;18.90;99.90
42489;DHT22;28118;52.388;9.452;2022-07-22T09:30:53;19.30;99.90
42489;DHT22;28118;52.388;9.452;2022-07-22T09:33:23;19.70;99.90
42489;DHT22;28118;52.388;9.452;2022-07-22T09:35:51;20.00;99.90
42489;DHT22;28118;52.388;9.452;2022-07-22T09:38:26;20.10;99.90
42489;DHT22;28118;52.388;9.452;2022-07-22T09:40:54;19.90;99.90
42489;DHT22;28118;52.388;9.452;2022-07-22T09:43:21;20.00;99.90
42489;DHT22;28118;52.388;9.452;2022-07-22T09:45:53;19.90;99.90
42489;DHT22;28118;52.388;9.452;2022-07-22T09:48:26;19.50;99.90
42489;DHT22;28118;52.388;9.452;2022-07-22T09:50:54;19.50;99.90
42489;DHT22;28118;52.388;9.452;2022-07-22T09:53:28;19.40;99.90
42489;DHT22;28118;52.388;9.452;2022-07-22T09:56:00;19.50;99.90
42489;DHT22;28118;52.388;9.452;2022-07-22T09:58:28;19.10;99.90
42489;DHT22;28118;52.388;9.452;2022-07-22T10:00:59;19.10;99.90
42489;DHT22;28118;52.388;9.452;2022-07-22T10:03:29;18.70;99.90
42489;DHT22;28118;52.388;9.452;2022-07-22T10:05:57;18.70;99.90
42489;DHT22;28118;52.388;9.452;2022-07-22T10:08:28;18.60;99.90
42489;DHT22;28118;52.388;9.452;2022-07-22T10:10:59;18.50;99.90
42489;DHT22;28118;52.388;9.452;2022-07-22T10:13:27;18.50;99.90
42489;DHT22;28118;52.388;9.452;2022-07-22T10:15:55;18.50;99.90
42489;DHT22;28118;52.388;9.452;2022-07-22T10:18:23;18.50;99.90
42489;DHT22;28118;52.388;9.452;2022-07-22T10:21:09;18.70;99.90
42489;DHT22;28118;52.388;9.452;2022-07-22T10:23:36;19.00;99.90
42489;DHT22;28118;52.388;9.452;2022-07-22T10:26:46;19.20;99.90
42489;DHT22;28118;52.388;9.452;2022-07-22T10:29:39;19.30;99.90
42489;DHT22;28118;52.388;9.452;2022-07-22T10:34:43;19.40;99.90
42489;DHT22;28118;52.388;9.452;2022-07-22T10:40:27;20.10;99.90
42489;DHT22;28118;52.388;9.452;2022-07-22T10:45:44;20.40;99.90
42489;DHT22;28118;52.388;9.452;2022-07-22T10:48:15;20.60;99.90
42489;DHT22;28118;52.388;9.452;2022-07-22T10:50:47;20.80;99.90
42489;DHT22;28118;52.388;9.452;2022-07-22T10:53:17;20.90;99.90
42489;DHT22;28118;52.388;9.452;2022-07-22T11:01:06;20.20;99.90
42489;DHT22;28118;52.388;9.452;2022-07-22T11:03:34;20.20;99.90
42489;DHT22;28118;52.388;9.452;2022-07-22T11:08:55;20.40;99.90
42489;DHT22;28118;52.388;9.452;2022-07-22T11:11:35;20.90;99.90
42489;DHT22;28118;52.388;9.452;2022-07-22T11:14:27;20.60;99.90
42489;DHT22;28118;52.388;9.452;2022-07-22T11:16:57;20.00;99.90
42489;DHT22;28118;52.388;9.452;2022-07-22T11:19:26;20.30;99.90
42489;DHT22;28118;52.388;9.452;2022-07-22T11:21:56;19.90;99.90
42489;DHT22;28118;52.388;9.452;2022-07-22T11:24:24;19.90;99.90
42489;DHT22;28118;52.388;9.452;2022-07-22T11:26:53;19.90;99.90
42489;DHT22;28118;52.388;9.452;2022-07-22T11:31:58;19.80;99.90
42489;DHT22;28118;52.388;9.452;2022-07-22T11:34:26;19.90;99.90
42489;DHT22;28118;52.388;9.452;2022-07-22T11:36:54;19.80;99.90
42489;DHT22;28118;52.388;9.452;2022-07-22T11:39:24;20.20;99.90
42489;DHT22;28118;52.388;9.452;2022-07-22T11:41:53;20.30;99.90
42489;DHT22;28118;52.388;9.452;2022-07-22T11:44:21;20.20;99.90
42489;DHT22;28118;52.388;9.452;2022-07-22T11:46:48;20.20;99.90
42489;DHT22;28118;52.388;9.452;2022-07-22T11:49:18;20.00;99.90
42489;DHT22;28118;52.388;9.452;2022-07-22T11:51:45;20.00;99.90
42489;DHT22;28118;52.388;9.452;2022-07-22T11:54:12;20.00;99.90
42489;DHT22;28118;52.388;9.452;2022-07-22T11:56:39;19.90;99.90
42489;DHT22;28118;52.388;9.452;2022-07-22T11:59:07;20.00;99.90
42489;DHT22;28118;52.388;9.452;2022-07-22T12:01:39;19.90;99.90
42489;DHT22;28118;52.388;9.452;2022-07-22T12:04:09;20.10;99.90
42489;DHT22;28118;52.388;9.452;2022-07-22T12:06:38;20.20;99.90
42489;DHT22;28118;52.388;9.452;2022-07-22T12:09:09;20.20;99.90
42489;DHT22;28118;52.388;9.452;2022-07-22T12:11:39;20.10;99.90
42489;DHT22;28118;52.388;9.452;2022-07-22T12:14:10;20.10;99.90
42489;DHT22;28118;52.388;9.452;2022-07-22T12:16:45;20.20;99.90
42489;DHT22;28118;52.388;9.452;2022-07-22T12:19:19;20.10;99.90
42489;DHT22;28118;52.388;9.452;2022-07-22T12:21:59;20.00;99.90
42489;DHT22;28118;52.388;9.452;2022-07-22T12:24:43;20.00;99.90
42489;DHT22;28118;52.388;9.452;2022-07-22T12:27:19;19.90;99.90
42489;DHT22;28118;52.388;9.452;2022-07-22T12:29:48;20.00;99.90
42489;DHT22;28118;52.388;9.452;2022-07-22T12:37:27;20.20;99.90
42489;DHT22;28118;52.388;9.452;2022-07-22T12:42:40;20.20;99.90
42489;DHT22;28118;52.388;9.452;2022-07-22T12:45:14;20.30;99.90
42489;DHT22;28118;52.388;9.452;2022-07-22T12:47:48;20.20;99.90
42489;DHT22;28118;52.388;9.452;2022-07-22T12:50:19;20.10;99.90
42489;DHT22;28118;52.388;9.452;2022-07-22T12:52:50;20.00;99.90
42489;DHT22;28118;52.388;9.452;2022-07-22T12:55:49;20.10;99.90
42489;DHT22;28118;52.388;9.452;2022-07-22T12:58:23;20.20;99.90
42489;DHT22;28118;52.388;9.452;2022-07-22T13:00:53;20.10;99.90
42489;DHT22;28118;52.388;9.452;2022-07-22T13:03:21;19.90;99.90
42489;DHT22;28118;52.388;9.452;2022-07-22T13:05:58;20.30;99.90
42489;DHT22;28118;52.388;9.452;2022-07-22T13:08:26;20.20;99.90
42489;DHT22;28118;52.388;9.452;2022-07-22T13:11:05;20.00;99.90
42489;DHT22;28118;52.388;9.452;2022-07-22T13:13:32;19.90;99.90
42489;DHT22;28118;52.388;9.452;2022-07-22T13:15:58;19.90;99.90
42489;DHT22;28118;52.388;9.452;2022-07-22T13:18:25;19.70;99.90
42489;DHT22;28118;52.388;9.452;2022-07-22T13:20:52;19.70;99.90
42489;DHT22;28118;52.388;9.452;2022-07-22T13:23:19;20.00;99.90
42489;DHT22;28118;52.388;9.452;2022-07-22T13:25:45;20.00;99.90
42489;DHT22;28118;52.388;9.452;2022-07-22T13:28:17;19.90;99.90
42489;DHT22;28118;52.388;9.452;2022-07-22T13:30:44;19.90;99.90
42489;DHT22;28118;52.388;9.452;2022-07-22T13:33:10;20.00;99.90
42489;DHT22;28118;52.388;9.452;2022-07-22T13:35:37;20.00;99.90
42489;DHT22;28118;52.388;9.452;2022-07-22T13:38:04;20.00;99.90
42489;DHT22;28118;52.388;9.452;2022-07-22T13:40:30;20.00;99.90
42489;DHT22;28118;52.388;9.452;2022-07-22T13:42:57;20.00;99.90
42489;DHT22;28118;52.388;9.452;2022-07-22T13:45:25;20.00;99.90
42489;DHT22;28118;52.388;9.452;2022-07-22T13:47:51;20.30;99.90
42489;DHT22;28118;52.388;9.452;2022-07-22T13:50:19;20.10;99.90
42489;DHT22;28118;52.388;9.452;2022-07-22T13:52:45;19.90;99.90
42489;DHT22;28118;52.388;9.452;2022-07-22T13:55:13;19.80;99.90
42489;DHT22;28118;52.388;9.452;2022-07-22T13:57:40;19.90;99.90
42489;DHT22;28118;52.388;9.452;2022-07-22T14:00:08;19.90;99.90
42489;DHT22;28118;52.388;9.452;2022-07-22T14:02:40;19.90;99.90
42489;DHT22;28118;52.388;9.452;2022-07-22T14:05:07;19.90;99.90
42489;DHT22;28118;52.388;9.452;2022-07-22T14:07:34;20.20;99.90
42489;DHT22;28118;52.388;9.452;2022-07-22T14:10:01;20.20;99.90
42489;DHT22;28118;52.388;9.452;2022-07-22T14:12:28;20.20;99.90
42489;DHT22;28118;52.388;9.452;2022-07-22T14:14:55;20.00;99.90
42489;DHT22;28118;52.388;9.452;2022-07-22T14:17:21;19.90;99.90
42489;DHT22;28118;52.388;9.452;2022-07-22T14:19:51;19.80;99.90
42489;DHT22;28118;52.388;9.452;2022-07-22T14:22:26;19.80;99.90
42489;DHT22;28118;52.388;9.452;2022-07-22T14:24:54;19.90;99.90
42489;DHT22;28118;52.388;9.452;2022-07-22T14:27:20;19.80;99.90
42489;DHT22;28118;52.388;9.452;2022-07-22T14:29:47;19.80;99.90
42489;DHT22;28118;52.388;9.452;2022-07-22T14:32:14;19.80;99.90
42489;DHT22;28118;52.388;9.452;2022-07-22T14:34:40;19.60;99.90
42489;DHT22;28118;52.388;9.452;2022-07-22T14:37:07;19.70;99.90
42489;DHT22;28118;52.388;9.452;2022-07-22T14:39:35;19.70;99.90
42489;DHT22;28118;52.388;9.452;2022-07-22T14:42:02;19.70;99.90
42489;DHT22;28118;52.388;9.452;2022-07-22T14:44:28;19.80;99.90
42489;DHT22;28118;52.388;9.452;2022-07-22T14:46:55;20.10;99.90
42489;DHT22;28118;52.388;9.452;2022-07-22T14:49:22;20.20;99.90
42489;DHT22;28118;52.388;9.452;2022-07-22T14:51:48;20.00;99.90
42489;DHT22;28118;52.388;9.452;2022-07-22T14:54:15;20.20;99.90
42489;DHT22;28118;52.388;9.452;2022-07-22T14:56:42;20.30;99.90
42489;DHT22;28118;52.388;9.452;2022-07-22T14:59:09;20.20;99.90
42489;DHT22;28118;52.388;9.452;2022-07-22T15:01:36;20.30;99.90
42489;DHT22;28118;52.388;9.452;2022-07-22T15:04:03;20.30;99.90
42489;DHT22;28118;52.388;9.452;2022-07-22T15:06:29;20.30;99.90
42489;DHT22;28118;52.388;9.452;2022-07-22T15:08:56;20.20;99.90
42489;DHT22;28118;52.388;9.452;2022-07-22T15:11:23;20.20;99.90
42489;DHT22;28118;52.388;9.452;2022-07-22T15:13:49;20.30;99.90
42489;DHT22;28118;52.388;9.452;2022-07-22T15:16:16;20.00;99.90
42489;DHT22;28118;52.388;9.452;2022-07-22T15:18:43;19.70;99.90
42489;DHT22;28118;52.388;9.452;2022-07-22T15:21:10;19.70;99.90
42489;DHT22;28118;52.388;9.452;2022-07-22T15:23:37;19.80;99.90
42489;DHT22;28118;52.388;9.452;2022-07-22T15:26:04;19.70;99.90
42489;DHT22;28118;52.388;9.452;2022-07-22T15:28:30;19.60;99.90
42489;DHT22;28118;52.388;9.452;2022-07-22T15:31:00;19.50;99.90
42489;DHT22;28118;52.388;9.452;2022-07-22T15:33:27;19.60;99.90
42489;DHT22;28118;52.388;9.452;2022-07-22T15:36:04;19.60;99.90
42489;DHT22;28118;52.388;9.452;2022-07-22T15:38:32;19.70;99.90
42489;DHT22;28118;52.388;9.452;2022-07-22T15:40:59;19.70;99.90
42489;DHT22;28118;52.388;9.452;2022-07-22T15:43:26;19.80;99.90
42489;DHT22;28118;52.388;9.452;2022-07-22T15:45:53;19.90;99.90
42489;DHT22;28118;52.388;9.452;2022-07-22T15:48:20;19.90;99.90
42489;DHT22;28118;52.388;9.452;2022-07-22T15:50:46;19.80;99.90
42489;DHT22;28118;52.388;9.452;2022-07-22T15:53:13;19.70;99.90
42489;DHT22;28118;52.388;9.452;2022-07-22T15:55:40;19.70;99.90
42489;DHT22;28118;52.388;9.452;2022-07-22T15:58:08;19.80;99.90
42489;DHT22;28118;52.388;9.452;2022-07-22T16:00:54;19.80;99.90
42489;DHT22;28118;52.388;9.452;2022-07-22T16:03:20;19.70;99.90
42489;DHT22;28118;52.388;9.452;2022-07-22T16:05:53;19.50;99.90
42489;DHT22;28118;52.388;9.452;2022-07-22T16:08:21;19.60;99.90